createdAt,value
2023-11-21T00:01:24.313Z,51.00
2023-11-21T00:03:51.070Z,50.37
2023-11-21T00:06:17.872Z,51.10
2023-11-21T00:08:45.878Z,51.34
2023-11-21T00:11:12.574Z,50.52
2023-11-21T00:13:39.276Z,50.56
2023-11-21T00:16:06.585Z,50.48
2023-11-21T00:18:33.257Z,51.05
2023-11-21T00:21:00.000Z,50.05
2023-11-21T00:23:26.752Z,50.18
2023-11-21T00:25:54.816Z,49.88
2023-11-21T00:28:21.525Z,50.66
2023-11-21T00:30:48.808Z,50.19
2023-11-21T00:33:15.556Z,51.04
2023-11-21T00:35:42.331Z,51.71
2023-11-21T00:38:09.004Z,51.55
2023-11-21T00:40:35.752Z,52.12
2023-11-21T00:43:06.455Z,52.22
2023-11-21T00:45:33.395Z,52.11
2023-11-21T00:48:00.093Z,52.26
2023-11-21T00:50:27.544Z,52.39
2023-11-21T00:52:54.229Z,52.60
2023-11-21T00:55:21.050Z,53.39
2023-11-21T00:57:47.773Z,54.00
2023-11-21T01:00:16.907Z,52.95
2023-11-21T01:02:43.652Z,52.93
2023-11-21T01:05:10.426Z,53.26
2023-11-21T01:07:37.157Z,52.86
2023-11-21T01:10:04.398Z,53.14
2023-11-21T01:12:31.209Z,53.11
2023-11-21T01:14:57.910Z,52.27
2023-11-21T01:17:25.955Z,53.26
2023-11-21T01:19:52.858Z,52.94
2023-11-21T01:22:19.657Z,53.04
2023-11-21T01:24:46.429Z,53.05
2023-11-21T01:27:13.113Z,53.23
2023-11-21T01:29:39.871Z,52.97
2023-11-21T01:32:06.969Z,53.00
2023-11-21T01:34:35.069Z,52.89
2023-11-21T01:37:01.824Z,52.94
2023-11-21T01:39:29.046Z,53.05
2023-11-21T01:41:55.710Z,54.32
2023-11-21T01:44:22.462Z,54.56
2023-11-21T01:46:49.292Z,54.94
2023-11-21T01:49:16.163Z,54.60
2023-11-21T01:51:44.942Z,55.02
2023-11-21T01:54:17.444Z,55.39
2023-11-21T01:56:45.815Z,56.13
2023-11-21T01:59:13.245Z,56.65
2023-11-21T02:01:40.063Z,56.46
2023-11-21T02:04:06.808Z,57.26
2023-11-21T02:06:34.764Z,57.90
2023-11-21T02:09:02.801Z,57.04
2023-11-21T02:11:29.774Z,57.65
2023-11-21T02:13:56.507Z,58.19
2023-11-21T02:16:23.277Z,57.67
2023-11-21T02:18:50.024Z,56.96
2023-11-21T02:21:16.926Z,57.21
2023-11-21T02:23:45.074Z,56.68
2023-11-21T02:26:11.815Z,56.78
2023-11-21T02:28:39.494Z,57.62
2023-11-21T02:31:06.378Z,56.81
2023-11-21T02:33:33.332Z,57.42
2023-11-21T02:36:00.126Z,57.17
2023-11-21T02:38:26.826Z,57.01
2023-11-21T02:40:55.018Z,57.78
2023-11-21T02:43:21.830Z,57.01
2023-11-21T02:45:48.560Z,58.17
2023-11-21T02:48:15.300Z,58.17
2023-11-21T02:50:41.998Z,57.92
2023-11-21T02:53:08.713Z,58.08
2023-11-21T02:55:35.939Z,57.70
2023-11-21T02:58:04.113Z,57.81
2023-11-21T03:00:30.890Z,57.40
2023-11-21T03:02:57.679Z,57.65
2023-11-21T03:05:24.668Z,57.35
2023-11-21T03:07:51.365Z,57.05
2023-11-21T03:10:18.151Z,58.02
2023-11-21T03:12:44.953Z,57.33
2023-11-21T03:15:13.088Z,57.65
2023-11-21T03:17:39.878Z,57.61
2023-11-21T03:20:07.595Z,57.04
2023-11-21T03:22:34.582Z,56.99
2023-11-21T03:25:01.602Z,57.48
2023-11-21T03:27:28.317Z,56.99
2023-11-21T03:29:55.051Z,56.98
2023-11-21T03:32:23.140Z,58.18
2023-11-21T03:34:56.705Z,57.54
2023-11-21T03:37:23.541Z,57.17
2023-11-21T03:39:50.307Z,57.77
2023-11-21T03:42:17.134Z,57.87
2023-11-21T03:44:43.805Z,57.96
2023-11-21T03:47:10.521Z,57.59
2023-11-21T03:49:38.546Z,57.61
2023-11-21T03:52:06.254Z,57.42
2023-11-21T03:54:32.913Z,57.70
2023-11-21T03:57:00.199Z,58.18
2023-11-21T03:59:26.876Z,57.97
2023-11-21T04:01:54.385Z,57.68
2023-11-21T04:04:21.136Z,57.21
2023-11-21T04:06:49.360Z,57.93
2023-11-21T04:09:16.047Z,57.65
2023-11-21T04:11:42.727Z,57.26
2023-11-21T04:14:09.741Z,57.80
2023-11-21T04:16:36.514Z,58.08
2023-11-21T04:19:03.237Z,57.61
2023-11-21T04:21:29.923Z,58.00
2023-11-21T04:23:57.943Z,58.10
2023-11-21T04:26:24.784Z,57.07
2023-11-21T04:28:51.493Z,57.93
2023-11-21T04:31:18.401Z,57.99
2023-11-21T04:33:45.066Z,57.68
2023-11-21T04:36:11.881Z,57.52
2023-11-21T04:38:38.655Z,58.17
2023-11-21T04:41:07.151Z,57.72
2023-11-21T04:43:33.917Z,58.14
2023-11-21T04:46:00.761Z,58.17
2023-11-21T04:48:27.539Z,58.50
2023-11-21T04:50:54.257Z,58.06
2023-11-21T04:53:21.052Z,57.91
2023-11-21T04:55:47.767Z,57.99
2023-11-21T04:58:15.824Z,57.82
2023-11-21T05:00:42.612Z,57.58
2023-11-21T05:03:10.311Z,57.54
2023-11-21T05:05:37.246Z,56.82
2023-11-21T05:08:04.188Z,57.13
2023-11-21T05:10:30.995Z,56.96
2023-11-21T05:12:57.700Z,57.25
2023-11-21T05:15:25.785Z,57.41
2023-11-21T05:17:52.492Z,57.01
2023-11-21T05:20:19.732Z,56.95
2023-11-21T05:22:46.614Z,57.03
2023-11-21T05:25:13.432Z,57.29
2023-11-21T05:27:40.159Z,57.57
2023-11-21T05:30:07.780Z,56.92
2023-11-21T05:32:35.873Z,56.99
2023-11-21T05:35:02.653Z,57.50
2023-11-21T05:37:29.457Z,57.66
2023-11-21T05:39:56.194Z,57.35
2023-11-21T05:42:22.851Z,58.37
2023-11-21T05:44:49.648Z,58.53
2023-11-21T05:47:16.335Z,59.11
2023-11-21T05:49:44.423Z,59.31
2023-11-21T05:52:11.233Z,59.83
2023-11-21T05:54:37.946Z,59.63
2023-11-21T05:57:05.192Z,59.20
2023-11-21T05:59:31.888Z,59.80
2023-11-21T06:01:58.637Z,58.85
2023-11-21T06:04:25.535Z,60.03
2023-11-21T06:06:53.767Z,59.56
2023-11-21T06:09:20.471Z,59.08
2023-11-21T06:11:47.188Z,59.57
2023-11-21T06:14:13.878Z,60.21
2023-11-21T06:16:40.737Z,60.09
2023-11-21T06:19:07.459Z,60.74
2023-11-21T06:21:34.177Z,60.71
2023-11-21T06:24:02.192Z,60.46
2023-11-21T06:26:29.015Z,60.30
2023-11-21T06:28:55.735Z,60.04
2023-11-21T06:31:22.636Z,59.93
2023-11-21T06:33:49.398Z,60.10
2023-11-21T06:36:16.132Z,60.73
2023-11-21T06:38:42.831Z,60.04
2023-11-21T06:41:10.892Z,59.45
2023-11-21T06:43:37.648Z,59.75
2023-11-21T06:46:04.862Z,60.24
2023-11-21T06:48:31.684Z,60.39
2023-11-21T06:50:58.411Z,60.41
2023-11-21T06:53:25.078Z,61.00
2023-11-21T06:55:51.859Z,61.12
2023-11-21T06:58:19.877Z,61.03
2023-11-21T07:00:46.537Z,61.23
2023-11-21T07:03:13.401Z,61.03
2023-11-21T07:05:40.242Z,60.26
2023-11-21T07:08:07.001Z,60.61
2023-11-21T07:10:33.861Z,61.04
2023-11-21T07:13:00.648Z,60.94
2023-11-21T07:15:28.805Z,60.70
2023-11-21T07:17:55.524Z,61.22
2023-11-21T07:20:22.385Z,61.01
2023-11-21T07:22:49.177Z,61.37
2023-11-21T07:25:16.068Z,61.50
2023-11-21T07:27:42.798Z,61.51
2023-11-21T07:30:11.310Z,61.08
2023-11-21T07:32:39.702Z,60.60
2023-11-21T07:35:06.886Z,61.09
2023-11-21T07:37:33.717Z,61.07
2023-11-21T07:40:00.557Z,61.16
2023-11-21T07:42:27.355Z,60.88
2023-11-21T07:44:54.160Z,60.72
2023-11-21T07:47:20.971Z,61.39
2023-11-21T07:49:49.142Z,61.83
2023-11-21T07:52:15.863Z,61.42
2023-11-21T07:54:42.619Z,61.04
2023-11-21T07:57:09.295Z,61.15
2023-11-21T07:59:35.987Z,60.99
2023-11-21T08:02:02.795Z,61.01
2023-11-21T08:04:32.405Z,61.40
2023-11-21T08:07:01.385Z,61.47
2023-11-21T08:09:28.079Z,61.32
2023-11-21T08:11:54.818Z,61.53
2023-11-21T08:14:21.522Z,60.51
2023-11-21T08:16:48.226Z,60.68
2023-11-21T08:19:14.981Z,60.15
2023-11-21T08:21:41.753Z,60.67
2023-11-21T08:24:09.978Z,60.60
2023-11-21T08:26:36.700Z,60.22
2023-11-21T08:29:03.548Z,60.95
2023-11-21T08:31:30.388Z,60.32
2023-11-21T08:33:57.242Z,59.74
2023-11-21T08:36:24.093Z,60.06
2023-11-21T08:38:50.777Z,60.19
2023-11-21T08:41:18.909Z,60.11
2023-11-21T08:43:45.662Z,59.58
2023-11-21T08:46:12.459Z,59.10
2023-11-21T08:48:39.268Z,59.78
2023-11-21T08:51:06.521Z,59.00
2023-11-21T08:53:33.385Z,59.25
2023-11-21T08:56:00.309Z,59.84
2023-11-21T08:58:28.365Z,60.03
2023-11-21T09:00:55.202Z,60.09
2023-11-21T09:03:22.154Z,59.74
2023-11-21T09:05:49.003Z,60.33
2023-11-21T09:08:15.772Z,59.81
2023-11-21T09:10:42.501Z,60.41
2023-11-21T09:13:09.160Z,61.12
2023-11-21T09:15:37.232Z,61.64
2023-11-21T09:18:04.426Z,61.36
2023-11-21T09:20:31.131Z,60.50
2023-11-21T09:22:57.856Z,60.64
2023-11-21T09:25:24.587Z,59.89
2023-11-21T09:27:51.272Z,59.53
2023-11-21T09:30:18.162Z,58.99
2023-11-21T09:32:46.220Z,59.50
2023-11-21T09:35:13.117Z,58.52
2023-11-21T09:37:40.028Z,59.19
2023-11-21T09:40:08.508Z,58.38
2023-11-21T09:42:37.800Z,58.64
2023-11-21T09:45:07.037Z,59.20
2023-11-21T09:47:33.836Z,58.52
2023-11-21T09:50:02.264Z,59.25
2023-11-21T09:52:29.347Z,58.52
2023-11-21T09:54:56.630Z,58.43
2023-11-21T09:57:23.357Z,58.10
2023-11-21T09:59:51.678Z,58.84
2023-11-21T10:02:18.637Z,58.23
2023-11-21T10:04:45.448Z,58.36
2023-11-21T10:07:13.568Z,57.93
2023-11-21T10:09:40.259Z,57.97
2023-11-21T10:12:07.538Z,55.32
2023-11-21T10:14:34.232Z,57.12
2023-11-21T10:17:01.129Z,56.38
2023-11-21T10:19:27.923Z,56.44
2023-11-21T10:21:54.668Z,57.20
2023-11-21T10:24:22.722Z,57.18
2023-11-21T10:26:53.420Z,57.03
2023-11-21T10:29:21.032Z,56.59
2023-11-21T10:31:50.233Z,56.57
2023-11-21T10:34:18.011Z,55.68
2023-11-21T10:36:44.767Z,56.48
2023-11-21T10:39:14.940Z,56.35
2023-11-21T10:41:44.306Z,55.99
2023-11-21T10:44:11.058Z,55.35
2023-11-21T10:46:37.968Z,55.09
2023-11-21T10:49:04.705Z,56.23
2023-11-21T10:51:31.424Z,54.09
2023-11-21T10:53:58.186Z,55.35
2023-11-21T10:56:24.988Z,54.62
2023-11-21T10:58:53.074Z,54.25
2023-11-21T11:01:20.279Z,54.34
2023-11-21T11:03:47.021Z,54.87
2023-11-21T11:06:13.831Z,56.01
2023-11-21T11:08:40.623Z,54.57
2023-11-21T11:11:07.501Z,54.02
2023-11-21T11:13:34.261Z,53.82
2023-11-21T11:16:02.427Z,54.13
2023-11-21T11:18:29.200Z,55.15
2023-11-21T11:20:56.096Z,54.62
2023-11-21T11:23:32.209Z,54.06
2023-11-21T11:26:08.052Z,53.95
2023-11-21T11:28:39.096Z,55.45
2023-11-21T11:31:11.788Z,55.40
2023-11-21T11:33:40.632Z,54.92
2023-11-21T11:36:09.325Z,54.01
2023-11-21T11:38:36.129Z,54.19
2023-11-21T11:41:03.339Z,53.66
2023-11-21T11:43:30.249Z,52.68
2023-11-21T11:45:57.061Z,52.31
2023-11-21T11:48:25.315Z,51.05
2023-11-21T11:51:05.180Z,50.03
2023-11-21T11:53:36.627Z,50.62
2023-11-21T11:56:23.689Z,51.23
2023-11-21T11:58:50.883Z,50.79
2023-11-21T12:01:18.238Z,52.62
2023-11-21T12:03:49.063Z,53.44
2023-11-21T12:06:15.826Z,52.47
2023-11-21T12:08:42.605Z,53.25
2023-11-21T12:11:09.302Z,53.69
2023-11-21T12:13:36.025Z,52.95
2023-11-21T12:16:02.779Z,53.25
2023-11-21T12:18:29.468Z,53.53
2023-11-21T12:20:57.577Z,53.70
2023-11-21T12:23:24.323Z,54.56
2023-11-21T12:25:51.093Z,54.10
2023-11-21T12:28:17.847Z,53.44
2023-11-21T12:30:44.592Z,53.41
2023-11-21T12:33:11.607Z,54.13
2023-11-21T12:35:38.476Z,54.43
2023-11-21T12:38:06.808Z,54.62
2023-11-21T12:40:33.944Z,53.41
2023-11-21T12:43:01.142Z,53.06
2023-11-21T12:45:28.836Z,51.81
2023-11-21T12:47:56.291Z,50.77
2023-11-21T12:50:23.269Z,51.05
2023-11-21T12:52:50.892Z,50.76
2023-11-21T12:55:19.311Z,51.00
2023-11-21T12:57:46.108Z,50.45
2023-11-21T13:00:13.929Z,51.19
2023-11-21T13:02:42.478Z,51.09
2023-11-21T13:05:09.210Z,50.39
2023-11-21T13:07:42.330Z,49.26
2023-11-21T13:10:09.835Z,49.05
2023-11-21T13:12:37.943Z,49.50
2023-11-21T13:15:05.227Z,48.93
2023-11-21T13:17:31.981Z,48.79
2023-11-21T13:19:58.764Z,49.06
2023-11-21T13:22:25.452Z,48.58
2023-11-21T13:24:52.167Z,46.93
2023-11-21T13:27:18.877Z,47.52
2023-11-21T13:29:46.982Z,47.11
2023-11-21T13:32:13.644Z,46.76
2023-11-21T13:34:40.374Z,46.88
2023-11-21T13:37:07.102Z,48.19
2023-11-21T13:39:33.838Z,48.10
2023-11-21T13:42:00.544Z,47.80
2023-11-21T13:44:27.273Z,48.50
2023-11-21T13:46:55.345Z,49.55
2023-11-21T13:49:22.040Z,51.20
2023-11-21T13:51:48.747Z,51.40
2023-11-21T13:54:15.427Z,50.30
2023-11-21T13:56:42.622Z,51.24
2023-11-21T13:59:09.343Z,51.11
2023-11-21T14:01:36.109Z,51.00
2023-11-21T14:04:04.588Z,51.31
2023-11-21T14:06:31.348Z,50.67
2023-11-21T14:08:58.243Z,49.99
2023-11-21T14:11:28.385Z,50.11
2023-11-21T14:13:59.564Z,50.01
2023-11-21T14:16:26.246Z,48.99
2023-11-21T14:18:52.980Z,49.02
2023-11-21T14:21:21.056Z,49.32
2023-11-21T14:23:47.799Z,49.32
2023-11-21T14:26:14.497Z,49.50
2023-11-21T14:28:41.248Z,50.08
2023-11-21T14:31:07.929Z,48.30
2023-11-21T14:33:34.598Z,48.07
2023-11-21T14:36:01.267Z,47.61
2023-11-21T14:38:29.302Z,47.80
2023-11-21T14:40:55.995Z,48.18
2023-11-21T14:43:22.733Z,48.92
2023-11-21T14:45:49.391Z,48.71
2023-11-21T14:48:16.162Z,48.29
2023-11-21T14:50:43.243Z,47.68
2023-11-21T14:53:09.967Z,47.20
2023-11-21T14:55:38.073Z,47.46
2023-11-21T14:58:04.782Z,48.06
2023-11-21T15:00:31.468Z,47.35
2023-11-21T15:02:58.308Z,48.09
2023-11-21T15:05:25.051Z,47.69
2023-11-21T15:07:51.788Z,48.42
2023-11-21T15:10:18.453Z,47.85
2023-11-21T15:12:46.574Z,48.14
2023-11-21T15:15:13.277Z,49.78
2023-11-21T15:17:40.083Z,48.77
2023-11-21T15:20:07.931Z,47.39
2023-11-21T15:22:34.641Z,47.28
2023-11-21T15:25:01.352Z,46.95
2023-11-21T15:27:28.118Z,46.94
2023-11-21T15:29:56.148Z,47.85
2023-11-21T15:32:22.866Z,47.58
2023-11-21T15:34:49.616Z,47.71
2023-11-21T15:37:16.677Z,47.83
2023-11-21T15:39:43.401Z,48.30
2023-11-21T15:42:10.189Z,48.11
2023-11-21T15:44:36.844Z,47.78
2023-11-21T15:47:05.086Z,48.29
2023-11-21T15:49:32.239Z,48.00
2023-11-21T15:51:58.995Z,47.45
2023-11-21T15:54:26.289Z,48.07
2023-11-21T15:56:53.112Z,48.96
2023-11-21T15:59:19.867Z,49.03
2023-11-21T16:01:46.708Z,48.92
2023-11-21T16:04:14.973Z,49.41
2023-11-21T16:06:41.700Z,48.91
2023-11-21T16:09:08.413Z,49.49
2023-11-21T16:11:35.167Z,49.11
2023-11-21T16:14:01.900Z,49.11
2023-11-21T16:16:28.596Z,49.36
2023-11-21T16:18:55.271Z,49.07
2023-11-21T16:21:23.363Z,49.34
2023-11-21T16:23:50.121Z,49.35
2023-11-21T16:26:16.990Z,48.80
2023-11-21T16:28:43.694Z,48.77
2023-11-21T16:31:10.413Z,49.58
2023-11-21T16:33:37.220Z,48.86
2023-11-21T16:36:04.533Z,48.31
2023-11-21T16:38:32.531Z,49.27
2023-11-21T16:40:59.328Z,48.92
2023-11-21T16:43:26.002Z,49.42
2023-11-21T16:45:52.738Z,49.60
2023-11-21T16:48:19.714Z,49.77
2023-11-21T16:50:46.503Z,49.59
2023-11-21T16:53:13.207Z,49.74
2023-11-21T16:55:41.304Z,49.61
2023-11-21T16:58:07.981Z,48.86
2023-11-21T17:00:34.657Z,48.71
2023-11-21T17:03:01.482Z,49.70
2023-11-21T17:05:28.285Z,50.06
2023-11-21T17:07:55.139Z,49.29
2023-11-21T17:10:22.766Z,49.19
2023-11-21T17:12:50.846Z,49.79
2023-11-21T17:15:17.534Z,49.40
2023-11-21T17:17:44.288Z,49.41
2023-11-21T17:20:11.287Z,49.36
2023-11-21T17:22:38.426Z,51.03
2023-11-21T17:25:05.988Z,49.98
2023-11-21T17:27:32.669Z,49.51
2023-11-21T17:30:00.741Z,49.68
2023-11-21T17:34:55.006Z,49.58
2023-11-21T17:37:21.699Z,50.37
2023-11-21T17:39:48.496Z,50.56
2023-11-21T17:42:15.168Z,50.84
2023-11-21T17:44:41.921Z,51.11
2023-11-21T17:47:10.113Z,50.63
2023-11-21T17:49:36.873Z,50.63
2023-11-21T17:52:04.149Z,51.92
2023-11-21T17:54:30.848Z,52.21
2023-11-21T17:56:57.585Z,51.88
2023-11-21T17:59:24.367Z,51.55
2023-11-21T18:01:51.168Z,52.54
2023-11-21T18:04:19.355Z,52.07
2023-11-21T18:06:46.125Z,52.37
2023-11-21T18:09:12.916Z,51.23
2023-11-21T18:11:39.892Z,51.86
2023-11-21T18:14:06.806Z,51.07
2023-11-21T18:16:33.627Z,52.13
2023-11-21T18:19:00.344Z,52.22
2023-11-21T18:21:28.466Z,51.91
2023-11-21T18:23:55.193Z,51.52
2023-11-21T18:26:22.004Z,51.13
2023-11-21T18:28:48.765Z,51.12
2023-11-21T18:31:15.533Z,51.78
2023-11-21T18:33:42.402Z,51.21
2023-11-21T18:36:09.430Z,51.36
2023-11-21T18:38:38.799Z,51.78
2023-11-21T18:41:05.700Z,52.21
2023-11-21T18:43:32.532Z,52.04
2023-11-21T18:45:59.255Z,51.70
2023-11-21T18:48:28.696Z,52.02
2023-11-21T18:50:56.935Z,51.88
2023-11-21T18:53:23.835Z,52.15
2023-11-21T18:55:51.982Z,51.74
2023-11-21T18:58:18.766Z,52.43
2023-11-21T19:00:45.483Z,52.40
2023-11-21T19:03:12.308Z,52.74
2023-11-21T19:05:39.070Z,52.60
2023-11-21T19:08:05.813Z,51.86
2023-11-21T19:10:32.544Z,52.31
2023-11-21T19:13:00.559Z,52.29
2023-11-21T19:15:27.300Z,52.13
2023-11-21T19:17:55.291Z,52.63
2023-11-21T19:20:22.259Z,52.96
2023-11-21T19:22:48.951Z,51.98
2023-11-21T19:25:16.014Z,52.33
2023-11-21T19:27:42.686Z,51.86
2023-11-21T19:30:11.563Z,51.99
2023-11-21T19:32:38.396Z,51.93
2023-11-21T19:35:06.230Z,52.49
2023-11-21T19:37:33.149Z,51.67
2023-11-21T19:40:00.391Z,52.34
2023-11-21T19:42:27.181Z,52.08
2023-11-21T19:44:53.953Z,53.23
2023-11-21T19:47:22.143Z,52.40
2023-11-21T19:49:49.053Z,53.27
2023-11-21T19:52:16.375Z,52.68
2023-11-21T19:54:43.102Z,52.38
2023-11-21T19:57:09.831Z,52.22
2023-11-21T19:59:36.551Z,52.53
2023-11-21T20:02:03.535Z,53.07
2023-11-21T20:04:31.610Z,52.60
2023-11-21T20:06:58.566Z,53.39
2023-11-21T20:09:25.288Z,53.07
2023-11-21T20:11:52.355Z,53.29
2023-11-21T20:14:19.624Z,53.78
2023-11-21T20:16:46.455Z,53.19
2023-11-21T20:19:13.272Z,53.77
2023-11-21T20:21:41.255Z,54.71
2023-11-21T20:24:08.958Z,55.39
2023-11-21T20:26:35.941Z,55.35
2023-11-21T20:29:02.756Z,55.55
2023-11-21T20:31:29.489Z,54.82
2023-11-21T20:33:56.493Z,55.42
2023-11-21T20:36:23.442Z,55.56
2023-11-21T20:38:51.520Z,55.39
2023-11-21T20:41:19.078Z,55.00
2023-11-21T20:43:48.616Z,55.41
2023-11-21T20:46:18.540Z,55.50
2023-11-21T20:48:45.620Z,55.25
2023-11-21T20:51:13.176Z,56.30
2023-11-21T20:53:39.861Z,56.26
2023-11-21T20:56:10.800Z,56.24
2023-11-21T20:58:37.621Z,56.42
2023-11-21T21:01:04.374Z,55.84
2023-11-21T21:03:31.100Z,56.73
2023-11-21T21:06:00.311Z,55.97
2023-11-21T21:08:29.011Z,56.69
2023-11-21T21:10:55.901Z,57.17
2023-11-21T21:13:24.067Z,58.06
2023-11-21T21:15:50.808Z,58.19
2023-11-21T21:18:17.688Z,58.69
2023-11-21T21:20:44.444Z,59.31
2023-11-21T21:23:11.128Z,59.48
2023-11-21T21:25:38.135Z,59.08
2023-11-21T21:28:05.790Z,59.03
2023-11-21T21:30:33.839Z,58.48
2023-11-21T21:33:00.580Z,58.84
2023-11-21T21:35:27.453Z,58.59
2023-11-21T21:37:54.171Z,58.92
2023-11-21T21:40:20.968Z,59.25
2023-11-21T21:42:47.860Z,59.40
2023-11-21T21:45:14.795Z,59.52
2023-11-21T21:47:42.897Z,59.80
2023-11-21T21:50:10.605Z,60.19
2023-11-21T21:52:37.927Z,59.65
2023-11-21T21:55:06.159Z,60.10
2023-11-21T21:57:32.878Z,60.23
2023-11-21T21:59:59.588Z,59.68
2023-11-21T22:02:26.798Z,59.76
2023-11-21T22:04:55.355Z,59.34
2023-11-21T22:07:22.092Z,59.84
2023-11-21T22:09:51.995Z,59.58
2023-11-21T22:12:20.174Z,59.58
2023-11-21T22:14:46.932Z,59.93
2023-11-21T22:17:13.957Z,59.41
2023-11-21T22:19:41.196Z,58.90
2023-11-21T22:22:09.386Z,58.56
2023-11-21T22:24:38.306Z,59.10
2023-11-21T22:27:05.410Z,59.24
2023-11-21T22:29:33.042Z,60.03
2023-11-21T22:32:00.317Z,59.68
2023-11-21T22:34:27.295Z,59.56
2023-11-21T22:36:54.718Z,59.70
2023-11-21T22:39:23.090Z,60.21
2023-11-21T22:41:49.820Z,60.38
2023-11-21T22:44:16.549Z,60.32
2023-11-21T22:46:43.884Z,60.39
2023-11-21T22:49:12.283Z,59.97
2023-11-21T22:51:39.062Z,59.78
2023-11-21T22:54:05.999Z,59.93
2023-11-21T22:56:34.068Z,59.51
2023-11-21T22:59:00.807Z,60.03
2023-11-21T23:01:27.536Z,60.35
2023-11-21T23:03:54.403Z,60.67
2023-11-21T23:06:21.611Z,61.30
2023-11-21T23:08:48.327Z,60.68
2023-11-21T23:11:15.196Z,60.53
2023-11-21T23:13:43.241Z,61.66
2023-11-21T23:16:10.115Z,61.25
2023-11-21T23:18:36.975Z,60.45
2023-11-21T23:21:03.926Z,61.05
2023-11-21T23:23:30.746Z,61.51
2023-11-21T23:25:57.584Z,61.39
2023-11-21T23:28:24.489Z,62.30
2023-11-21T23:30:52.533Z,61.91
2023-11-21T23:33:19.343Z,62.15
2023-11-21T23:35:46.239Z,62.09
2023-11-21T23:38:12.905Z,61.57
2023-11-21T23:40:39.652Z,61.73
2023-11-21T23:43:06.361Z,61.65
2023-11-21T23:45:33.225Z,61.54
2023-11-21T23:48:01.313Z,61.55
2023-11-21T23:50:28.067Z,61.75
2023-11-21T23:52:54.822Z,61.74
2023-11-21T23:55:21.509Z,62.44
2023-11-21T23:57:48.292Z,63.05
